You are not logged in, Click here to log in
香港國際機場HKG / VHHH 香港翔天路1號
ICAO: VHHH Country: 香港翔天路1號
Latitude: 22.308 Longitude: 113.918
Total Arrivals: 678 Total Departures: 723
Latest Arrival: Z2223 (RPLL-VHHH)Arthur. Kung Latest Departure: A77400 (VHHH-ZHCC)Arthur. Kung
Scenery: http://www.qtc-hk.com/wp-content/uploads/2013/12/20110405092437553.jpg
METAR : VHHH 071130Z 10012KT 9999 FEW018 31/24 Q1006 NOSIG

香港國際機場HKG

You are accessing this site from IP address 34.200.218.187. Virtual Airline. CMS by phpVMS.Website designed by Zumeweb and edited by Theo Bearman.
There is 0 User(s) Online: | and 16 Guest(s) Online.
All information on this site is for fight simulation purposes only. This site is for flight logging for pilots of Virtual Airline&模擬飛行論壇 FlySim only.